Time;durP1;ratioP1;P1;durP2;ratioP2;P2;SDS_P1;SDS_P2;PMS_P1;PMS_P2;Temp;Humidity;BMP_temperature;BMP_pressure;BME280_temperature;BME280_humidity;BME280_pressure;Samples;Min_cycle;Max_cycle;Signal;HPM_P1;HPM_P2
2023/05/22 00:01:18;;;;;;;11.48;6.13;;;16.70;99.90;;;;;;5074241;28;20039;-63
2023/05/22 00:03:44;;;;;;;11.63;5.47;;;16.70;99.90;;;;;;5091363;28;20046;-63
2023/05/22 00:06:10;;;;;;;11.05;6.05;;;16.70;99.90;;;;;;5090798;28;20355;-63
2023/05/22 00:08:36;;;;;;;10.73;6.30;;;16.70;99.90;;;;;;5108916;28;20534;-63
2023/05/22 00:11:03;;;;;;;13.35;6.40;;;16.80;99.90;;;;;;5074087;28;20150;-62
2023/05/22 00:13:29;;;;;;;12.40;6.43;;;16.70;99.90;;;;;;5090245;28;20073;-62
2023/05/22 00:15:55;;;;;;;14.70;6.05;;;16.70;99.90;;;;;;5109227;28;20120;-62
2023/05/22 00:18:21;;;;;;;11.98;6.43;;;16.70;99.90;;;;;;5073978;28;20039;-63
2023/05/22 00:20:47;;;;;;;17.70;6.20;;;16.70;99.90;;;;;;5090433;28;20058;-62
2023/05/22 00:23:13;;;;;;;11.07;5.35;;;16.70;99.90;;;;;;5108951;28;20478;-62
2023/05/22 00:25:39;;;;;;;9.93;5.55;;;16.70;99.90;;;;;;5090967;28;20035;-61
2023/05/22 00:28:05;;;;;;;11.63;6.30;;;16.70;99.90;;;;;;5091028;28;20754;-61
2023/05/22 00:30:32;;;;;;;10.00;5.80;;;16.70;99.90;;;;;;5094846;28;20134;-61
2023/05/22 00:32:58;;;;;;;10.45;5.43;;;16.80;99.90;;;;;;5095149;28;20122;-61
2023/05/22 00:35:23;;;;;;;11.52;6.13;;;16.80;99.90;;;;;;5094617;28;20492;-61
2023/05/22 00:37:49;;;;;;;9.50;5.38;;;16.80;99.90;;;;;;5113178;28;20132;-61
2023/05/22 00:40:15;;;;;;;12.82;6.28;;;16.80;99.90;;;;;;5094676;28;20055;-61
2023/05/22 00:42:44;;;;;;;8.15;5.28;;;16.80;99.90;;;;;;5094160;28;20055;-61
2023/05/22 00:45:11;;;;;;;10.13;5.13;;;16.80;99.90;;;;;;5113110;28;20051;-61
2023/05/22 00:47:37;;;;;;;10.23;5.40;;;16.80;99.90;;;;;;5093889;28;20040;-61
2023/05/22 00:50:05;;;;;;;10.73;5.47;;;16.80;99.90;;;;;;5112525;28;20059;-61
2023/05/22 00:52:32;;;;;;;11.40;5.35;;;16.80;99.90;;;;;;5094396;28;20491;-62
2023/05/22 00:54:59;;;;;;;7.95;5.28;;;16.70;99.90;;;;;;5076929;28;20047;-61
2023/05/22 00:57:26;;;;;;;9.98;4.68;;;16.70;99.90;;;;;;5094435;28;20052;-61
2023/05/22 00:59:52;;;;;;;8.05;4.65;;;16.70;99.90;;;;;;5094368;28;20068;-61
2023/05/22 01:02:17;;;;;;;11.15;4.55;;;16.60;99.90;;;;;;5112157;28;20050;-61
2023/05/22 01:04:47;;;;;;;12.02;6.22;;;16.50;99.90;;;;;;5094309;28;20454;-61
2023/05/22 01:07:15;;;;;;;;;;;16.50;99.90;;;;;;5094679;28;20092;-61
2023/05/22 01:09:41;;;;;;;10.40;5.50;;;16.40;99.90;;;;;;5093478;28;20367;-61
2023/05/22 01:12:43;;;;;;;11.55;6.13;;;16.40;99.90;;;;;;5112499;28;20047;-61
2023/05/22 01:15:38;;;;;;;10.43;5.13;;;16.30;99.90;;;;;;5093928;28;20491;-61
2023/05/22 01:18:33;;;;;;;12.70;6.05;;;16.30;99.90;;;;;;5093899;28;20048;-61
2023/05/22 01:21:13;;;;;;;10.48;6.20;;;16.30;99.90;;;;;;5093996;28;20092;-61
2023/05/22 01:24:00;;;;;;;12.90;5.90;;;16.20;99.90;;;;;;5093371;28;20126;-61
2023/05/22 01:26:31;;;;;;;11.23;6.72;;;16.20;99.90;;;;;;5112185;28;20043;-61
2023/05/22 01:29:35;;;;;;;12.75;6.57;;;16.20;99.90;;;;;;5076868;28;20044;-61
2023/05/22 01:32:03;;;;;;;12.35;6.25;;;16.20;99.90;;;;;;5076709;28;20595;-61
2023/05/22 01:34:30;;;;;;;11.52;5.70;;;16.10;99.90;;;;;;5112278;28;20054;-61
2023/05/22 01:36:57;;;;;;;11.40;5.70;;;16.10;99.90;;;;;;5111199;28;20043;-61
2023/05/22 01:39:24;;;;;;;13.45;6.43;;;16.10;99.90;;;;;;5111465;28;20128;-61
2023/05/22 01:41:50;;;;;;;14.13;6.75;;;16.10;99.90;;;;;;5093051;28;20510;-62
2023/05/22 01:44:16;;;;;;;10.20;5.68;;;16.10;99.90;;;;;;5092895;28;20040;-62
2023/05/22 01:46:42;;;;;;;12.77;6.80;;;16.10;99.90;;;;;;5093276;28;20036;-63
2023/05/22 01:49:08;;;;;;;11.73;5.85;;;16.10;99.90;;;;;;5093323;28;20094;-62
2023/05/22 01:51:52;;;;;;;11.98;6.30;;;16.10;99.90;;;;;;5076028;28;20054;-62
2023/05/22 01:54:41;;;;;;;11.63;5.72;;;16.10;99.90;;;;;;5093488;28;20047;-62
2023/05/22 01:57:59;;;;;;;9.50;5.47;;;16.10;99.90;;;;;;5111499;28;20054;-62
2023/05/22 02:00:27;;;;;;;11.77;6.47;;;16.10;99.90;;;;;;5093155;28;20365;-63
2023/05/22 02:03:17;;;;;;;14.05;6.32;;;16.10;99.90;;;;;;5076240;28;20127;-62
2023/05/22 02:05:45;;;;;;;11.63;6.43;;;16.10;99.90;;;;;;5110759;28;20038;-62
2023/05/22 02:08:13;;;;;;;11.85;6.03;;;16.10;99.90;;;;;;5093014;28;20105;-62
2023/05/22 02:10:40;;;;;;;10.55;6.00;;;16.10;99.90;;;;;;5093054;28;20044;-62
2023/05/22 02:13:06;;;;;;;14.68;7.07;;;16.10;99.90;;;;;;5092306;28;20043;-62
2023/05/22 02:15:32;;;;;;;12.80;6.22;;;16.10;99.90;;;;;;5075885;28;20035;-62
2023/05/22 02:18:00;;;;;;;11.90;6.43;;;16.10;99.90;;;;;;5075971;28;20130;-62
2023/05/22 02:20:26;;;;;;;8.95;5.70;;;16.00;99.90;;;;;;5110377;28;20085;-62
2023/05/22 02:22:52;;;;;;;11.13;6.38;;;16.10;99.90;;;;;;5075936;28;20035;-63
2023/05/22 02:25:18;;;;;;;13.20;5.80;;;16.10;99.90;;;;;;5092643;28;20098;-63
2023/05/22 02:27:48;;;;;;;11.57;6.03;;;16.00;99.90;;;;;;5092497;28;20088;-63
2023/05/22 02:30:14;;;;;;;10.13;6.25;;;16.00;99.90;;;;;;5092676;28;20044;-63
2023/05/22 02:32:41;;;;;;;13.20;7.43;;;16.00;99.90;;;;;;5091873;28;20046;-63
2023/05/22 02:35:08;;;;;;;11.85;6.35;;;15.90;99.90;;;;;;5110830;28;20058;-63
2023/05/22 02:37:35;;;;;;;12.23;5.65;;;16.00;99.90;;;;;;5110912;28;20039;-62
2023/05/22 02:40:00;;;;;;;12.02;7.03;;;16.00;99.90;;;;;;5091610;28;20044;-62
2023/05/22 02:42:26;;;;;;;11.85;6.85;;;15.90;99.90;;;;;;5110429;28;20032;-62
2023/05/22 02:44:52;;;;;;;12.75;6.85;;;15.90;99.90;;;;;;5092411;28;20078;-63
2023/05/22 02:47:18;;;;;;;16.23;7.10;;;15.90;99.90;;;;;;5109930;28;20514;-62
2023/05/22 02:49:44;;;;;;;17.75;7.13;;;15.90;99.90;;;;;;5110243;28;20063;-63
2023/05/22 02:52:12;;;;;;;11.25;5.80;;;15.90;99.90;;;;;;5074355;28;20043;-63
2023/05/22 02:54:38;;;;;;;13.02;5.95;;;15.90;99.90;;;;;;5109845;28;20050;-62
2023/05/22 02:57:10;;;;;;;14.93;7.22;;;15.90;99.90;;;;;;5092248;28;20039;-62
2023/05/22 02:59:40;;;;;;;10.90;6.35;;;15.90;99.90;;;;;;5109680;28;20044;-63
2023/05/22 03:02:11;;;;;;;9.57;5.30;;;15.90;99.90;;;;;;5091324;28;20058;-63
2023/05/22 03:04:39;;;;;;;10.43;5.30;;;15.80;99.90;;;;;;5109879;28;20039;-62
2023/05/22 03:07:11;;;;;;;13.05;6.07;;;15.80;99.90;;;;;;5075315;28;20494;-63
2023/05/22 03:09:40;;;;;;;13.13;5.75;;;15.70;99.90;;;;;;5091025;28;20146;-63
2023/05/22 03:12:06;;;;;;;11.40;5.97;;;15.70;99.90;;;;;;5110087;28;20047;-62
2023/05/22 03:14:36;;;;;;;13.25;6.18;;;15.70;99.90;;;;;;5109116;28;20384;-63
2023/05/22 03:17:02;;;;;;;17.85;7.53;;;15.70;99.90;;;;;;5109825;28;20040;-63
2023/05/22 03:19:28;;;;;;;11.20;5.53;;;15.70;99.90;;;;;;5091612;28;20038;-63
2023/05/22 03:21:54;;;;;;;15.57;7.50;;;15.70;99.90;;;;;;5091019;28;20679;-63
2023/05/22 03:24:20;;;;;;;10.98;6.05;;;15.70;99.90;;;;;;5109836;28;20054;-63
2023/05/22 03:26:46;;;;;;;11.10;6.32;;;15.70;99.90;;;;;;5074860;28;20544;-63
2023/05/22 03:29:12;;;;;;;12.02;5.88;;;15.70;99.90;;;;;;5090738;28;20146;-63
2023/05/22 03:31:37;;;;;;;10.20;5.78;;;15.70;99.90;;;;;;5091426;28;20078;-62
2023/05/22 03:34:04;;;;;;;11.85;6.40;;;15.60;99.90;;;;;;5109904;28;20050;-63
2023/05/22 03:36:32;;;;;;;11.80;6.20;;;15.60;99.90;;;;;;5090755;28;20078;-62
2023/05/22 03:38:59;;;;;;;11.05;6.47;;;15.70;99.90;;;;;;5074332;28;20042;-62
2023/05/22 03:41:24;;;;;;;12.48;6.25;;;15.60;99.90;;;;;;5091196;28;20047;-63
2023/05/22 03:43:50;;;;;;;13.07;6.35;;;15.60;99.90;;;;;;5109010;28;20245;-63
2023/05/22 03:46:16;;;;;;;12.55;6.53;;;15.70;99.90;;;;;;5091215;28;20070;-62
2023/05/22 03:48:42;;;;;;;12.15;6.03;;;15.60;99.90;;;;;;5091148;28;20046;-63
2023/05/22 03:51:08;;;;;;;10.98;6.30;;;15.60;99.90;;;;;;5108551;28;20048;-63
2023/05/22 03:53:33;;;;;;;9.75;5.40;;;15.60;99.90;;;;;;5091184;28;20047;-63
2023/05/22 03:55:59;;;;;;;13.10;6.72;;;15.60;99.90;;;;;;5091429;28;20040;-63
2023/05/22 03:58:25;;;;;;;9.70;5.93;;;15.60;99.90;;;;;;5090675;28;20118;-63
2023/05/22 04:00:57;;;;;;;10.85;6.35;;;15.70;99.90;;;;;;5090860;28;20391;-62
2023/05/22 04:03:23;;;;;;;11.82;6.45;;;15.70;99.90;;;;;;5093590;28;20074;-63
2023/05/22 04:05:50;;;;;;;15.27;7.07;;;15.70;99.90;;;;;;5115664;28;20116;-63
2023/05/22 04:08:16;;;;;;;15.23;7.35;;;15.70;99.90;;;;;;5097636;28;20051;-63
2023/05/22 04:10:45;;;;;;;9.88;5.60;;;15.70;99.90;;;;;;5097334;28;20039;-63
2023/05/22 04:13:15;;;;;;;12.45;6.63;;;15.70;99.90;;;;;;5080757;28;20047;-63
2023/05/22 04:15:43;;;;;;;15.98;7.53;;;15.80;99.90;;;;;;5116122;28;20052;-63
2023/05/22 04:18:10;;;;;;;13.63;6.93;;;15.80;99.90;;;;;;5097273;28;20055;-63
2023/05/22 04:20:36;;;;;;;14.65;7.68;;;15.80;99.90;;;;;;5115940;28;20111;-63
2023/05/22 04:23:03;;;;;;;12.50;7.47;;;15.80;99.90;;;;;;5115690;28;20035;-63
2023/05/22 04:25:29;;;;;;;10.05;6.45;;;15.80;99.90;;;;;;5097186;28;20040;-63
2023/05/22 04:27:55;;;;;;;15.60;6.75;;;15.80;99.90;;;;;;5097543;28;20096;-63
2023/05/22 04:30:21;;;;;;;11.32;6.68;;;15.80;99.90;;;;;;5116008;28;20043;-62
2023/05/22 04:32:47;;;;;;;12.73;6.97;;;15.90;99.90;;;;;;5097049;28;20059;-62
2023/05/22 04:35:17;;;;;;;12.27;6.63;;;15.80;99.90;;;;;;5115993;28;20047;-62
2023/05/22 04:37:44;;;;;;;14.63;7.68;;;15.90;99.90;;;;;;5080973;28;20035;-62
2023/05/22 04:40:11;;;;;;;14.95;7.55;;;15.90;99.90;;;;;;5115186;28;20043;-62
2023/05/22 04:42:41;;;;;;;12.95;7.28;;;15.90;99.90;;;;;;5097630;28;20487;-62
2023/05/22 04:45:07;;;;;;;11.15;6.43;;;16.00;99.90;;;;;;5097571;28;20032;-63
2023/05/22 04:47:33;;;;;;;13.18;7.13;;;15.90;99.90;;;;;;5096777;28;20046;-62
2023/05/22 04:50:01;;;;;;;14.23;7.53;;;15.90;99.90;;;;;;5115406;28;20055;-63
2023/05/22 04:52:27;;;;;;;14.93;7.13;;;16.00;99.90;;;;;;5097310;28;20050;-63
2023/05/22 04:54:54;;;;;;;11.30;6.18;;;16.00;99.90;;;;;;5096990;28;20043;-63
2023/05/22 04:57:20;;;;;;;15.65;8.32;;;16.00;99.90;;;;;;5098284;28;20040;-63
2023/05/22 04:59:46;;;;;;;16.75;7.60;;;16.00;99.90;;;;;;5115555;28;20487;-63
2023/05/22 05:02:13;;;;;;;13.13;7.40;;;16.00;99.90;;;;;;5081443;28;20032;-63
2023/05/22 05:04:40;;;;;;;15.55;6.97;;;16.00;99.90;;;;;;5098116;28;20050;-63
2023/05/22 05:07:05;;;;;;;12.88;6.82;;;16.00;99.90;;;;;;5097279;28;20036;-63
2023/05/22 05:09:32;;;;;;;12.68;7.22;;;16.00;99.90;;;;;;5098472;28;20134;-62
2023/05/22 05:11:58;;;;;;;12.70;6.45;;;16.00;99.90;;;;;;5097941;28;20044;-63
2023/05/22 05:14:24;;;;;;;12.52;6.47;;;16.00;99.90;;;;;;5079537;28;20096;-63
2023/05/22 05:16:53;;;;;;;13.93;6.68;;;16.00;99.90;;;;;;5112829;28;20395;-63
2023/05/22 05:19:22;;;;;;;16.40;8.18;;;16.00;99.90;;;;;;5112866;28;20035;-63
2023/05/22 05:21:48;;;;;;;13.15;6.78;;;16.00;99.90;;;;;;5112388;28;20074;-63
2023/05/22 05:24:16;;;;;;;12.38;6.55;;;16.00;99.90;;;;;;5094642;28;20071;-63
2023/05/22 05:26:42;;;;;;;16.92;8.02;;;16.00;99.90;;;;;;5077654;28;20032;-63
2023/05/22 05:29:08;;;;;;;15.90;7.53;;;16.00;99.90;;;;;;5112358;28;20531;-63
2023/05/22 05:31:34;;;;;;;15.13;7.53;;;16.00;99.90;;;;;;5077654;28;20044;-63
2023/05/22 05:34:00;;;;;;;13.73;7.45;;;16.00;99.90;;;;;;5094434;28;20133;-63
2023/05/22 05:36:27;;;;;;;12.57;6.93;;;16.00;99.90;;;;;;5094023;28;20039;-63
2023/05/22 05:38:53;;;;;;;17.75;7.60;;;16.00;99.90;;;;;;5094308;28;20046;-63
2023/05/22 05:41:19;;;;;;;15.52;6.72;;;16.00;99.90;;;;;;5094599;28;20035;-63
2023/05/22 05:43:44;;;;;;;13.88;7.88;;;16.10;99.90;;;;;;5112168;28;20039;-63
2023/05/22 05:46:10;;;;;;;11.30;6.78;;;16.10;99.90;;;;;;5094222;28;20530;-63
2023/05/22 05:48:36;;;;;;;12.45;7.25;;;16.10;99.90;;;;;;5112115;28;20043;-63
2023/05/22 05:51:02;;;;;;;14.13;6.88;;;16.10;99.90;;;;;;5112473;28;20055;-64
2023/05/22 05:53:28;;;;;;;13.23;7.38;;;16.10;99.90;;;;;;5094134;28;20496;-64
2023/05/22 05:55:54;;;;;;;13.55;7.10;;;16.10;99.90;;;;;;5093684;28;20130;-63
2023/05/22 05:58:20;;;;;;;12.95;6.28;;;16.10;99.90;;;;;;5094203;28;20039;-63
2023/05/22 06:00:46;;;;;;;13.93;6.50;;;16.10;99.90;;;;;;5112539;28;20047;-64
2023/05/22 06:03:12;;;;;;;10.30;6.07;;;16.20;99.90;;;;;;5093346;28;20038;-63
2023/05/22 06:05:38;;;;;;;14.27;7.00;;;16.20;99.90;;;;;;5077299;28;20046;-64
2023/05/22 06:08:04;;;;;;;13.02;7.38;;;16.20;99.90;;;;;;5093947;28;20396;-63
2023/05/22 06:10:31;;;;;;;12.23;6.00;;;16.20;99.90;;;;;;5093201;28;20075;-63
2023/05/22 06:12:57;;;;;;;12.05;5.40;;;16.20;99.90;;;;;;5094068;28;20052;-63
2023/05/22 06:15:22;;;;;;;10.23;5.45;;;16.30;99.90;;;;;;5094058;28;20046;-63
2023/05/22 06:17:48;;;;;;;9.88;5.32;;;16.30;99.90;;;;;;5093269;28;20479;-64
2023/05/22 06:20:14;;;;;;;5.28;3.67;;;16.30;99.90;;;;;;5094125;28;20040;-63
2023/05/22 06:22:40;;;;;;;10.30;4.20;;;16.30;99.90;;;;;;5076912;28;20078;-64
2023/05/22 06:25:06;;;;;;;5.70;2.97;;;16.30;99.90;;;;;;5111452;28;20036;-63
2023/05/22 06:27:32;;;;;;;5.68;3.13;;;16.30;99.90;;;;;;5093679;28;20035;-64
2023/05/22 06:29:59;;;;;;;7.82;3.25;;;16.30;99.90;;;;;;5093540;28;20457;-64
2023/05/22 06:32:25;;;;;;;5.90;2.80;;;16.30;99.90;;;;;;5092988;28;20054;-64
2023/05/22 06:34:51;;;;;;;11.55;3.33;;;16.40;99.90;;;;;;5093721;28;20395;-64
2023/05/22 06:37:17;;;;;;;7.97;3.22;;;16.40;99.90;;;;;;5093459;28;20130;-63
2023/05/22 06:39:43;;;;;;;4.13;2.58;;;16.40;99.90;;;;;;5075745;28;20559;-63
2023/05/22 06:42:08;;;;;;;6.20;3.78;;;16.40;99.90;;;;;;5093249;28;20118;-63
2023/05/22 06:44:34;;;;;;;5.57;3.00;;;16.40;99.90;;;;;;5092470;28;20122;-63
2023/05/22 06:47:00;;;;;;;5.68;3.22;;;16.50;99.90;;;;;;5093248;28;20130;-62
2023/05/22 06:49:26;;;;;;;5.57;3.00;;;16.50;99.90;;;;;;5089767;28;20060;-62
2023/05/22 06:51:52;;;;;;;5.20;3.08;;;16.50;99.90;;;;;;5090806;28;20271;-63
2023/05/22 06:54:20;;;;;;;9.13;4.15;;;16.60;99.90;;;;;;5089698;28;20571;-63
2023/05/22 06:56:45;;;;;;;5.03;2.63;;;16.60;99.90;;;;;;5090061;28;20038;-63
2023/05/22 06:59:11;;;;;;;6.90;3.28;;;16.60;99.90;;;;;;5089176;28;20044;-63
2023/05/22 07:01:37;;;;;;;5.38;3.42;;;16.70;99.90;;;;;;5089502;28;20036;-63
2023/05/22 07:04:07;;;;;;;6.88;3.10;;;16.70;99.90;;;;;;5072541;28;20040;-62
2023/05/22 07:06:37;;;;;;;13.02;3.53;;;16.70;99.90;;;;;;5090545;28;20040;-62
2023/05/22 07:09:14;;;;;;;8.43;3.33;;;16.80;99.90;;;;;;5072549;28;20058;-64
2023/05/22 07:11:41;;;;;;;5.78;3.47;;;16.80;99.90;;;;;;5089323;28;20555;-64
2023/05/22 07:14:11;;;;;;;5.38;2.78;;;16.90;99.90;;;;;;5051919;28;20045;-64
2023/05/22 07:16:40;;;;;;;7.38;2.53;;;16.90;99.90;;;;;;5048881;28;20076;-64
2023/05/22 07:19:07;;;;;;;4.50;2.73;;;16.90;99.90;;;;;;5049197;28;20077;-64
2023/05/22 07:21:36;;;;;;;4.85;3.00;;;16.90;99.90;;;;;;5048493;28;20087;-64
2023/05/22 07:24:07;;;;;;;3.92;2.10;;;17.00;99.90;;;;;;5032324;28;20044;-65
2023/05/22 07:26:44;;;;;;;8.23;2.90;;;17.00;99.90;;;;;;5048076;28;20413;-63
2023/05/22 07:29:10;;;;;;;5.57;2.67;;;17.10;99.90;;;;;;5048338;28;20110;-64
2023/05/22 07:31:37;;;;;;;4.85;2.50;;;17.20;99.90;;;;;;5048545;28;20430;-64
2023/05/22 07:34:03;;;;;;;6.47;2.60;;;17.30;99.90;;;;;;5031240;28;20041;-65
2023/05/22 07:36:30;;;;;;;5.15;2.38;;;17.60;99.90;;;;;;5048799;28;20041;-64
2023/05/22 07:38:56;;;;;;;4.70;2.50;;;17.80;99.90;;;;;;5047964;28;20079;-64
2023/05/22 07:41:24;;;;;;;6.60;2.95;;;18.10;99.90;;;;;;5048154;28;20401;-63
2023/05/22 07:43:50;;;;;;;3.83;2.20;;;18.30;99.90;;;;;;5048841;28;20499;-64
2023/05/22 07:46:16;;;;;;;5.40;1.90;;;18.30;99.90;;;;;;5050054;28;20116;-63
2023/05/22 07:48:42;;;;;;;4.13;1.90;;;18.30;99.90;;;;;;5031730;28;20374;-64
2023/05/22 07:51:08;;;;;;;3.55;2.10;;;18.20;99.90;;;;;;5088448;28;20056;-64
2023/05/22 07:53:34;;;;;;;3.75;1.80;;;18.20;99.90;;;;;;5071876;28;20036;-63
2023/05/22 07:56:00;;;;;;;3.75;1.90;;;18.10;99.90;;;;;;5088069;28;20036;-63
2023/05/22 07:58:26;;;;;;;4.85;1.80;;;18.10;99.90;;;;;;5089826;28;20128;-63
2023/05/22 08:00:52;;;;;;;5.88;1.92;;;18.30;99.90;;;;;;5088368;28;20044;-63
2023/05/22 08:03:18;;;;;;;3.42;2.25;;;18.30;99.90;;;;;;5089340;28;20046;-63
2023/05/22 08:05:45;;;;;;;3.03;2.08;;;18.50;99.90;;;;;;5089515;28;20040;-63
2023/05/22 08:08:10;;;;;;;3.05;1.73;;;18.80;99.90;;;;;;5089726;28;20032;-64
2023/05/22 08:10:36;;;;;;;3.20;1.85;;;19.10;99.90;;;;;;5089271;28;20043;-63
2023/05/22 08:13:05;;;;;;;3.38;2.25;;;19.30;99.90;;;;;;5055109;28;20419;-63
2023/05/22 08:15:34;;;;;;;6.25;2.22;;;19.60;99.90;;;;;;5055261;28;20442;-62
2023/05/22 08:18:00;;;;;;;3.78;1.58;;;19.80;99.90;;;;;;5106388;28;20096;-62
2023/05/22 08:20:26;;;;;;;2.58;1.48;;;20.00;99.90;;;;;;5109778;28;20082;-62
2023/05/22 08:22:53;;;;;;;3.05;1.45;;;20.10;99.90;;;;;;5091371;28;20444;-62
2023/05/22 08:25:19;;;;;;;2.40;1.38;;;20.20;99.90;;;;;;5091811;28;20535;-62
2023/05/22 08:27:45;;;;;;;2.72;1.95;;;20.20;99.90;;;;;;5075114;28;20131;-62
2023/05/22 08:30:11;;;;;;;3.05;2.05;;;20.30;99.90;;;;;;5091004;28;20062;-62
2023/05/22 08:32:36;;;;;;;3.78;1.60;;;20.40;99.90;;;;;;5090649;28;20096;-62
2023/05/22 08:35:02;;;;;;;4.28;1.83;;;20.50;99.90;;;;;;5091615;28;20039;-62
2023/05/22 08:37:28;;;;;;;2.78;1.63;;;20.70;99.90;;;;;;5091223;28;20507;-63
2023/05/22 08:39:54;;;;;;;2.55;1.65;;;20.90;99.90;;;;;;5091366;28;20385;-62
2023/05/22 08:42:20;;;;;;;4.45;2.08;;;21.10;99.90;;;;;;5091323;28;20044;-63
2023/05/22 08:44:47;;;;;;;4.68;1.70;;;21.20;99.90;;;;;;5090913;28;20032;-63
2023/05/22 08:47:14;;;;;;;5.78;2.38;;;21.30;99.90;;;;;;5110052;28;20050;-63
2023/05/22 08:49:40;;;;;;;4.25;2.53;;;21.50;99.90;;;;;;5074386;28;20059;-63
2023/05/22 08:52:25;;;;;;;5.85;2.10;;;21.50;99.90;;;;;;5094605;28;20058;-64
2023/05/22 08:54:54;;;;;;;4.32;2.83;;;21.60;99.90;;;;;;5095489;28;20136;-63
2023/05/22 08:57:21;;;;;;;4.13;2.03;;;21.90;99.90;;;;;;5095413;28;20489;-63
2023/05/22 08:59:48;;;;;;;5.10;2.97;;;22.00;99.90;;;;;;5094591;28;20126;-66
2023/05/22 09:02:16;;;;;;;3.20;2.13;;;22.20;99.90;;;;;;5078192;28;20047;-64
2023/05/22 09:04:42;;;;;;;4.05;2.58;;;22.20;99.90;;;;;;5094477;28;20047;-63
2023/05/22 09:07:08;;;;;;;3.55;2.08;;;22.00;99.90;;;;;;5094938;28;20065;-63
2023/05/22 09:09:38;;;;;;;4.75;2.40;;;21.90;99.90;;;;;;5113310;28;20400;-62
2023/05/22 09:12:07;;;;;;;4.60;2.05;;;21.70;99.90;;;;;;5094559;28;20047;-64
2023/05/22 09:14:43;;;;;;;4.60;2.75;;;21.60;99.90;;;;;;5113460;28;20043;-63
2023/05/22 09:17:13;;;;;;;5.80;2.30;;;21.60;99.90;;;;;;5113581;28;20039;-62
2023/05/22 09:19:46;;;;;;;3.75;2.60;;;22.20;99.90;;;;;;5094048;28;20488;-63
2023/05/22 09:22:12;;;;;;;4.88;2.42;;;22.60;99.90;;;;;;5093956;28;20740;-64
2023/05/22 09:24:41;;;;;;;4.30;2.65;;;22.70;99.90;;;;;;5093865;28;20169;-64
2023/05/22 09:27:07;;;;;;;6.57;2.87;;;22.50;99.90;;;;;;5112144;28;20426;-65
2023/05/22 09:29:47;;;;;;;6.35;2.83;;;22.30;99.90;;;;;;5112619;28;20495;-63
2023/05/22 09:32:14;;;;;;;6.25;2.90;;;22.20;99.90;;;;;;5094861;28;20129;-62
2023/05/22 09:34:39;;;;;;;4.82;2.72;;;22.10;99.90;;;;;;5093955;28;20057;-63
2023/05/22 09:37:05;;;;;;;5.20;2.83;;;22.10;99.90;;;;;;5112943;28;20480;-62
2023/05/22 09:39:39;;;;;;;4.78;2.85;;;22.10;99.90;;;;;;5112759;28;20509;-62
2023/05/22 09:42:08;;;;;;;4.55;2.55;;;22.10;99.90;;;;;;5094462;28;20500;-62
2023/05/22 09:44:34;;;;;;;5.18;2.45;;;22.10;99.90;;;;;;5112616;28;20046;-62
2023/05/22 09:47:01;;;;;;;4.07;2.58;;;22.00;99.90;;;;;;5111843;28;20035;-63
2023/05/22 09:49:27;;;;;;;5.30;2.67;;;21.90;99.90;;;;;;5094029;28;20063;-63
2023/05/22 09:51:55;;;;;;;4.30;2.20;;;21.90;99.90;;;;;;5094388;28;20050;-62
2023/05/22 09:54:24;;;;;;;;;;;21.90;99.90;;;;;;5094293;28;20071;-62
2023/05/22 09:56:55;;;;;;;4.22;2.20;;;21.90;99.90;;;;;;5112297;28;20372;-63
2023/05/22 09:59:28;;;;;;;4.47;3.00;;;21.90;99.90;;;;;;5112189;28;20531;-64
2023/05/22 10:01:55;;;;;;;3.83;2.50;;;21.90;99.90;;;;;;5111326;28;20032;-63
2023/05/22 10:04:22;;;;;;;5.05;2.95;;;21.80;99.90;;;;;;5093906;28;20039;-63
2023/05/22 10:06:53;;;;;;;6.10;2.97;;;21.70;99.90;;;;;;5093928;28;20122;-63
2023/05/22 10:09:23;;;;;;;6.65;3.30;;;21.70;99.90;;;;;;5111616;28;20043;-62
2023/05/22 10:11:53;;;;;;;6.30;2.97;;;21.70;99.90;;;;;;5112244;28;20048;-62
2023/05/22 10:14:19;;;;;;;8.02;3.42;;;21.80;99.90;;;;;;5112402;28;20046;-62
2023/05/22 10:16:46;;;;;;;3.75;2.65;;;21.90;99.90;;;;;;5076433;28;20449;-62
2023/05/22 10:19:13;;;;;;;5.10;2.75;;;22.20;99.90;;;;;;5091389;28;20067;-63
2023/05/22 10:21:40;;;;;;;7.75;3.45;;;22.70;99.90;;;;;;5108568;28;20438;-63
2023/05/22 10:24:07;;;;;;;6.78;3.50;;;23.40;99.90;;;;;;5093466;28;20121;-63
2023/05/22 10:26:33;;;;;;;4.72;3.35;;;23.90;99.90;;;;;;5111807;28;20050;-64
2023/05/22 10:29:09;;;;;;;6.75;3.40;;;24.20;99.90;;;;;;5111269;28;20035;-64
2023/05/22 10:31:52;;;;;;;6.35;2.88;;;24.50;99.90;;;;;;5093485;28;20422;-64
2023/05/22 10:34:49;;;;;;;6.10;3.15;;;24.70;99.90;;;;;;5111335;28;20039;-65
2023/05/22 10:37:50;;;;;;;5.97;3.25;;;24.80;99.90;;;;;;5092787;28;20062;-64
2023/05/22 10:40:34;;;;;;;3.97;2.42;;;25.10;99.90;;;;;;5089372;28;20063;-66
2023/05/22 10:43:02;;;;;;;4.75;2.67;;;25.50;99.90;;;;;;5110952;28;20040;-65
2023/05/22 10:45:29;;;;;;;6.28;3.30;;;25.80;99.90;;;;;;5104000;28;20429;-65
2023/05/22 10:48:02;;;;;;;5.30;3.35;;;26.10;99.90;;;;;;5072814;28;20040;-66
2023/05/22 10:50:28;;;;;;;7.00;3.03;;;26.30;99.90;;;;;;5091536;28;20063;-65
2023/05/22 10:53:23;;;;;;;4.85;3.00;;;26.40;99.90;;;;;;5072850;28;20052;-65
2023/05/22 10:55:57;;;;;;;5.88;3.25;;;26.60;99.90;;;;;;5090938;28;20051;-66
2023/05/22 10:58:36;;;;;;;5.15;2.85;;;26.90;99.90;;;;;;5090081;28;20040;-66
2023/05/22 11:01:19;;;;;;;5.47;3.13;;;27.10;99.90;;;;;;5072583;28;20435;-65
2023/05/22 11:03:52;;;;;;;4.95;3.25;;;27.30;99.90;;;;;;5055182;28;20044;-65
2023/05/22 11:06:38;;;;;;;6.15;3.55;;;27.20;99.90;;;;;;5072507;28;20040;-65
2023/05/22 11:09:25;;;;;;;7.30;3.20;;;27.20;99.90;;;;;;5072384;28;20051;-65
2023/05/22 11:12:21;;;;;;;6.82;3.80;;;27.20;99.90;;;;;;5071842;28;20048;-66
2023/05/22 11:14:52;;;;;;;5.20;3.42;;;27.10;99.90;;;;;;5055570;28;20040;-66
2023/05/22 11:17:32;;;;;;;5.40;3.17;;;27.10;99.90;;;;;;5090785;28;20676;-65
2023/05/22 11:20:06;;;;;;;7.07;3.08;;;27.10;99.90;;;;;;5055654;28;20071;-65
2023/05/22 11:22:35;;;;;;;7.80;3.67;;;27.00;99.90;;;;;;5072335;28;20507;-65
2023/05/22 11:25:25;;;;;;;4.22;2.95;;;26.80;99.90;;;;;;5055295;28;20051;-66
2023/05/22 11:27:53;;;;;;;7.18;3.65;;;26.70;99.90;;;;;;5090215;28;20073;-65
2023/05/22 11:30:23;;;;;;;4.13;2.67;;;26.80;99.90;;;;;;5090375;28;20044;-65
2023/05/22 11:32:49;;;;;;;4.35;2.78;;;26.80;99.90;;;;;;5071511;28;20511;-65
2023/05/22 11:35:19;;;;;;;7.55;2.83;;;26.80;99.90;;;;;;5071936;28;20079;-65
2023/05/22 11:37:47;;;;;;;6.38;3.17;;;27.00;99.90;;;;;;5071938;28;20055;-65
2023/05/22 11:40:15;;;;;;;4.88;3.03;;;27.30;99.90;;;;;;5054842;28;20028;-65
2023/05/22 11:42:41;;;;;;;7.30;3.47;;;27.40;99.90;;;;;;5055444;28;20044;-65
2023/05/22 11:45:07;;;;;;;5.38;2.78;;;27.40;99.90;;;;;;5055151;28;20484;-65
2023/05/22 11:47:33;;;;;;;4.88;3.10;;;27.30;99.90;;;;;;5054788;28;20177;-66
2023/05/22 11:50:00;;;;;;;4.70;2.83;;;27.10;99.90;;;;;;5089742;28;20127;-65
2023/05/22 11:52:32;;;;;;;5.22;3.38;;;27.00;99.90;;;;;;5090238;28;20043;-66
2023/05/22 11:54:58;;;;;;;5.97;2.95;;;27.00;99.90;;;;;;5071946;28;20040;-67
2023/05/22 11:57:25;;;;;;;4.55;2.60;;;26.90;99.90;;;;;;5089823;28;20076;-65
2023/05/22 11:59:51;;;;;;;5.38;3.33;;;26.80;99.90;;;;;;5070987;28;20040;-65
2023/05/22 12:02:18;;;;;;;4.10;2.95;;;26.80;99.90;;;;;;5090055;28;20093;-65
2023/05/22 12:04:44;;;;;;;4.80;3.10;;;26.90;99.90;;;;;;5089973;28;20388;-67
2023/05/22 12:07:10;;;;;;;6.28;3.17;;;27.00;99.90;;;;;;5071146;28;20555;-68
2023/05/22 12:09:41;;;;;;;6.38;3.25;;;26.80;99.90;;;;;;5055019;28;20040;-68
2023/05/22 12:12:10;;;;;;;6.28;3.33;;;26.30;99.90;;;;;;5055108;28;20048;-67
2023/05/22 12:14:36;;;;;;;5.47;3.45;;;25.70;99.90;;;;;;5071275;28;20123;-66
2023/05/22 12:17:05;;;;;;;5.65;3.53;;;25.10;99.90;;;;;;5089882;28;20070;-64
2023/05/22 12:19:31;;;;;;;7.68;3.65;;;24.40;99.90;;;;;;5089914;28;20071;-64
2023/05/22 12:21:58;;;;;;;6.75;3.47;;;24.00;99.90;;;;;;5070911;28;20044;-64
2023/05/22 12:24:23;;;;;;;8.85;4.13;;;23.60;99.90;;;;;;5073269;28;20035;-64
2023/05/22 12:26:53;;;;;;;5.80;3.90;;;23.50;99.90;;;;;;5088179;28;20495;-65
2023/05/22 12:29:22;;;;;;;7.63;4.63;;;23.70;99.90;;;;;;5113706;28;20040;-63
2023/05/22 12:31:48;;;;;;;;;;;24.00;99.90;;;;;;5114094;28;20044;-64
2023/05/22 12:34:17;;;;;;;9.30;4.32;;;24.20;99.90;;;;;;5095677;28;19961;-63
2023/05/22 12:36:45;;;;;;;7.50;4.17;;;24.50;99.90;;;;;;5095337;28;20035;-64
2023/05/22 12:39:16;;;;;;;6.75;3.60;;;24.80;99.90;;;;;;5095799;28;20281;-62
2023/05/22 12:41:43;;;;;;;7.50;4.35;;;24.90;99.90;;;;;;5113518;28;20480;-64
2023/05/22 12:44:09;;;;;;;6.10;3.78;;;25.00;99.90;;;;;;5095533;28;20039;-64
2023/05/22 12:46:35;;;;;;;6.38;3.85;;;25.00;99.90;;;;;;5095777;28;20035;-65
2023/05/22 12:49:01;;;;;;;7.32;3.85;;;25.10;99.90;;;;;;5094782;28;20036;-64
2023/05/22 12:51:29;;;;;;;7.07;4.10;;;25.10;99.90;;;;;;5113685;28;20110;-63